CheckWX is a tool to help pilots better visualize weather data.  It is not intended as a substitute for an official pre-flight weather briefing.

04:50:55 UTC

HKML METAR
Malindi Airport
Malindi, Kenya
Current

9 hours ago

HKML 252000Z 15010KT 9999 FEW020 25/23 Q1017
Observed
Aug-25 @ 20:00 UTC
Wind
  • 150° at 10 KTS
Visibility
10,000+ meters
Flight Rules
VFR
Cloud Levels
  • Few at 2,000' AGL
Temperature
25°C / 77°F
Dewpoint
23°C / 73°F
Humidity
89%
Altimeter
30.03" Hg
Pressure
1016.92 hPa
Previous

10 hours ago

HKML 251900Z 18008KT 9999 SCT020 25/22 Q1017
Observed
Aug-25 @ 19:00 UTC
Wind
  • 180° at 8 KTS
Visibility
10,000+ meters
Flight Rules
VFR
Cloud Levels
  • Scattered at 2,000' AGL
Temperature
25°C / 77°F
Dewpoint
22°C / 72°F
Humidity
83%
Altimeter
30.03" Hg
Pressure
1016.92 hPa
Previous

11 hours ago

HKML 251800Z 18006KT 9999 SCT020 25/22 Q1017
Observed
Aug-25 @ 18:00 UTC
Wind
  • 180° at 6 KTS
Visibility
10,000+ meters
Flight Rules
VFR
Cloud Levels
  • Scattered at 2,000' AGL
Temperature
25°C / 77°F
Dewpoint
22°C / 72°F
Humidity
83%
Altimeter
30.03" Hg
Pressure
1016.92 hPa